Time;durP1;ratioP1;P1;durP2;ratioP2;P2;SDS_P1;SDS_P2;PMS_P1;PMS_P2;Temp;Humidity;BMP_temperature;BMP_pressure;BME280_temperature;BME280_humidity;BME280_pressure;Samples;Min_cycle;Max_cycle;Signal;HPM_P1;HPM_P2
2022/04/07 00:01:20;;;;;;;5.67;3.80;;;;;;;;;;5011662;28;20205;-83
2022/04/07 00:03:47;;;;;;;11.10;4.57;;;;;;;;;;5014417;28;20300;-83
2022/04/07 00:06:14;;;;;;;9.50;4.50;;;;;;;;;;5014447;28;20636;-83
2022/04/07 00:08:41;;;;;;;12.30;4.43;;;;;;;;;;5011263;28;20239;-82
2022/04/07 00:11:10;;;;;;;8.73;4.07;;;;;;;;;;5012121;28;20212;-83
2022/04/07 00:13:38;;;;;;;6.87;3.73;;;;;;;;;;5011460;28;20510;-83
2022/04/07 00:16:06;;;;;;;8.57;4.07;;;;;;;;;;5010415;28;20224;-83
2022/04/07 00:18:34;;;;;;;7.47;3.93;;;;;;;;;;5009001;28;20208;-83
2022/04/07 00:21:02;;;;;;;6.40;3.80;;;;;;;;;;5011635;28;20209;-83
2022/04/07 00:23:29;;;;;;;7.73;3.93;;;;;;;;;;5009613;28;20484;-83
2022/04/07 00:25:56;;;;;;;9.43;4.10;;;;;;;;;;5005481;28;20315;-82
2022/04/07 00:28:25;;;;;;;9.63;3.80;;;;;;;;;;5010646;28;20205;-81
2022/04/07 00:30:52;;;;;;;8.73;3.90;;;;;;;;;;5012572;28;20286;-81
2022/04/07 00:33:19;;;;;;;7.03;3.53;;;;;;;;;;5009906;28;20209;-81
2022/04/07 00:35:47;;;;;;;7.97;3.63;;;;;;;;;;5010893;28;20268;-82
2022/04/07 00:38:14;;;;;;;5.60;3.50;;;;;;;;;;5013635;28;20223;-81
2022/04/07 00:40:41;;;;;;;9.50;3.80;;;;;;;;;;5010620;28;20254;-82
2022/04/07 00:43:09;;;;;;;6.73;4.00;;;;;;;;;;5012295;28;20235;-82
2022/04/07 00:45:37;;;;;;;6.10;3.30;;;;;;;;;;5014616;28;20220;-81
2022/04/07 00:48:05;;;;;;;7.63;3.33;;;;;;;;;;5012124;28;20753;-82
2022/04/07 00:50:32;;;;;;;5.87;2.90;;;;;;;;;;5013477;28;20284;-82
2022/04/07 00:53:00;;;;;;;6.47;2.97;;;;;;;;;;5013368;28;20208;-81
2022/04/07 00:55:28;;;;;;;5.13;3.30;;;;;;;;;;5015113;28;20204;-82
2022/04/07 00:57:55;;;;;;;7.03;3.10;;;;;;;;;;5015536;28;20211;-81
2022/04/07 01:00:22;;;;;;;4.80;2.50;;;;;;;;;;5015029;28;20220;-81
2022/04/07 01:02:50;;;;;;;12.37;3.37;;;;;;;;;;5018697;28;20302;-82
2022/04/07 01:05:20;;;;;;;6.57;2.93;;;;;;;;;;5018222;28;20270;-82
2022/04/07 01:07:47;;;;;;;5.27;2.90;;;;;;;;;;5013752;28;20232;-82
2022/04/07 01:10:14;;;;;;;7.47;2.77;;;;;;;;;;5017978;28;20301;-81
2022/04/07 01:12:42;;;;;;;5.67;2.77;;;;;;;;;;5015382;28;20573;-82
2022/04/07 01:15:09;;;;;;;6.07;2.53;;;;;;;;;;5012379;28;20639;-81
2022/04/07 01:17:38;;;;;;;5.53;2.37;;;;;;;;;;5015307;28;20209;-82
2022/04/07 01:20:07;;;;;;;8.00;3.10;;;;;;;;;;5016351;28;20235;-83
2022/04/07 01:22:36;;;;;;;4.80;2.80;;;;;;;;;;5013447;28;20303;-83
2022/04/07 01:25:05;;;;;;;6.83;3.03;;;;;;;;;;5015553;28;20289;-82
2022/04/07 01:27:32;;;;;;;6.97;2.87;;;;;;;;;;5010154;28;20234;-81
2022/04/07 01:30:02;;;;;;;3.97;2.47;;;;;;;;;;5014408;28;20251;-81
2022/04/07 01:32:32;;;;;;;3.93;2.60;;;;;;;;;;5015044;28;20221;-81
2022/04/07 01:34:59;;;;;;;3.60;2.30;;;;;;;;;;5012512;28;20224;-82
2022/04/07 01:37:27;;;;;;;5.93;2.47;;;;;;;;;;5017392;28;20640;-81
2022/04/07 01:39:55;;;;;;;5.67;2.80;;;;;;;;;;5014437;28;20233;-81
2022/04/07 01:42:23;;;;;;;4.33;2.50;;;;;;;;;;5014699;28;20204;-81
2022/04/07 01:44:54;;;;;;;3.43;2.47;;;;;;;;;;5014205;28;20312;-82
2022/04/07 01:47:22;;;;;;;4.20;2.23;;;;;;;;;;5007757;28;20208;-81
2022/04/07 01:49:53;;;;;;;5.17;2.57;;;;;;;;;;5008008;28;20225;-81
2022/04/07 01:52:21;;;;;;;3.87;2.53;;;;;;;;;;5006180;28;20200;-81
2022/04/07 01:54:48;;;;;;;3.43;2.30;;;;;;;;;;5005772;28;20204;-80
2022/04/07 01:57:20;;;;;;;6.93;2.73;;;;;;;;;;5006916;28;20200;-82
2022/04/07 01:59:48;;;;;;;5.07;2.73;;;;;;;;;;5006785;28;20727;-80
2022/04/07 02:02:15;;;;;;;4.20;2.63;;;;;;;;;;5010579;28;20231;-81
2022/04/07 02:04:52;;;;;;;8.83;2.97;;;;;;;;;;5008740;28;20216;-82
2022/04/07 02:07:20;;;;;;;4.50;2.43;;;;;;;;;;5013509;28;20215;-81
2022/04/07 02:09:47;;;;;;;4.30;2.40;;;;;;;;;;5013817;28;20232;-83
2022/04/07 02:12:14;;;;;;;3.27;1.93;;;;;;;;;;5015722;28;20659;-80
2022/04/07 02:14:42;;;;;;;2.90;1.70;;;;;;;;;;5015543;28;20295;-81
2022/04/07 02:17:11;;;;;;;1.93;1.37;;;;;;;;;;5015425;28;20624;-81
2022/04/07 02:19:39;;;;;;;2.47;1.30;;;;;;;;;;5016858;28;20255;-80
2022/04/07 02:22:06;;;;;;;2.00;1.00;;;;;;;;;;5014768;28;20276;-81
2022/04/07 02:24:33;;;;;;;2.97;1.20;;;;;;;;;;5015287;28;20310;-80
2022/04/07 02:27:00;;;;;;;2.90;0.90;;;;;;;;;;5015308;28;20683;-81
2022/04/07 02:29:27;;;;;;;2.10;0.83;;;;;;;;;;5018414;28;20292;-81
2022/04/07 02:31:54;;;;;;;2.67;1.07;;;;;;;;;;5018422;28;20204;-81
2022/04/07 02:34:23;;;;;;;3.13;0.90;;;;;;;;;;5016640;28;20268;-82
2022/04/07 02:36:50;;;;;;;2.90;0.83;;;;;;;;;;5013083;28;20201;-81
2022/04/07 02:39:17;;;;;;;1.17;0.63;;;;;;;;;;5019112;28;20295;-81
2022/04/07 02:41:44;;;;;;;1.40;0.80;;;;;;;;;;5016990;28;20220;-81
2022/04/07 02:44:11;;;;;;;2.60;0.90;;;;;;;;;;5016043;28;20200;-81
2022/04/07 02:46:39;;;;;;;0.83;0.40;;;;;;;;;;5017353;28;20247;-82
2022/04/07 02:49:07;;;;;;;2.00;0.53;;;;;;;;;;5020449;28;20232;-82
2022/04/07 02:51:35;;;;;;;0.80;0.30;;;;;;;;;;5019045;28;20719;-81
2022/04/07 02:54:03;;;;;;;0.63;0.40;;;;;;;;;;5015486;28;20204;-82
2022/04/07 02:56:30;;;;;;;1.63;0.40;;;;;;;;;;5017771;28;20292;-81
2022/04/07 02:58:57;;;;;;;0.50;0.40;;;;;;;;;;5019464;28;20282;-82
2022/04/07 03:01:25;;;;;;;0.70;0.43;;;;;;;;;;5018544;28;20235;-81
2022/04/07 03:03:52;;;;;;;1.20;0.60;;;;;;;;;;5019156;28;20204;-82
2022/04/07 03:06:19;;;;;;;0.80;0.43;;;;;;;;;;5015888;28;20252;-81
2022/04/07 03:08:50;;;;;;;1.70;1.00;;;;;;;;;;5016844;28;20277;-82
2022/04/07 03:11:17;;;;;;;1.30;0.73;;;;;;;;;;5017526;28;20216;-82
2022/04/07 03:13:44;;;;;;;1.27;0.83;;;;;;;;;;5015994;28;20660;-82
2022/04/07 03:16:12;;;;;;;2.00;1.00;;;;;;;;;;5019640;28;20283;-82
2022/04/07 03:18:39;;;;;;;1.33;1.10;;;;;;;;;;5020995;28;20215;-82
2022/04/07 03:21:06;;;;;;;1.47;1.03;;;;;;;;;;5019479;28;20208;-82
2022/04/07 03:23:33;;;;;;;2.20;1.27;;;;;;;;;;5016387;28;20204;-82
2022/04/07 03:26:02;;;;;;;1.43;1.00;;;;;;;;;;5015946;28;20235;-81
2022/04/07 03:28:29;;;;;;;1.47;1.13;;;;;;;;;;5016593;28;20204;-80
2022/04/07 03:30:57;;;;;;;2.00;1.40;;;;;;;;;;5018274;28;20268;-82
2022/04/07 03:33:24;;;;;;;1.30;0.90;;;;;;;;;;5016596;28;20204;-81
2022/04/07 03:35:51;;;;;;;2.07;1.30;;;;;;;;;;5014658;28;20275;-80
2022/04/07 03:38:18;;;;;;;3.23;1.10;;;;;;;;;;5016966;28;20941;-82
2022/04/07 03:40:45;;;;;;;4.37;1.10;;;;;;;;;;5018533;28;20651;-81
2022/04/07 03:43:14;;;;;;;2.50;1.30;;;;;;;;;;5016947;28;20214;-82
2022/04/07 03:45:41;;;;;;;1.77;0.90;;;;;;;;;;5017141;28;20299;-81
2022/04/07 03:48:08;;;;;;;1.40;1.00;;;9.80;99.90;;;;;;5018475;28;20649;-82
2022/04/07 03:50:35;;;;;;;1.70;1.20;;;8.80;99.90;;;;;;5017235;28;20220;-82
2022/04/07 03:53:02;;;;;;;1.60;1.10;;;8.80;99.90;;;;;;5016296;28;20208;-81
2022/04/07 03:55:29;;;;;;;2.27;1.47;;;8.80;99.90;;;;;;5018021;28;20208;-80
2022/04/07 03:57:56;;;;;;;2.30;1.50;;;8.80;99.90;;;;;;5019849;28;20213;-81
2022/04/07 04:00:25;;;;;;;1.80;1.40;;;8.80;99.90;;;;;;5016637;28;20240;-82
2022/04/07 04:02:52;;;;;;;2.23;1.50;;;8.90;99.90;;;;;;5018353;28;20634;-82
2022/04/07 04:05:19;;;;;;;3.13;1.50;;;8.90;99.90;;;;;;5013958;28;20225;-82
2022/04/07 04:07:46;;;;;;;4.40;1.50;;;8.90;99.90;;;;;;5014936;28;20239;-82
2022/04/07 04:10:13;;;;;;;4.07;2.00;;;8.90;99.90;;;;;;5017141;28;20220;-81
2022/04/07 04:12:40;;;;;;;2.10;1.47;;;8.90;99.90;;;;;;5012894;28;20214;-83
2022/04/07 04:15:08;;;;;;;2.43;1.20;;;8.90;99.90;;;;;;5007650;28;20204;-82
2022/04/07 04:17:36;;;;;;;5.00;1.53;;;8.90;99.90;;;;;;5019934;28;21145;-82
2022/04/07 04:20:04;;;;;;;1.57;1.30;;;8.90;99.90;;;;;;5015870;28;20233;-79
2022/04/07 04:22:31;;;;;;;3.13;1.10;;;8.90;99.90;;;;;;5016573;28;20668;-80
2022/04/07 04:24:58;;;;;;;2.33;1.10;;;8.90;99.90;;;;;;5018009;28;20681;-81
2022/04/07 04:27:25;;;;;;;2.10;1.30;;;9.00;99.90;;;;;;5017389;28;20204;-79
2022/04/07 04:29:52;;;;;;;1.50;1.17;;;9.00;99.90;;;;;;5018558;28;20283;-80
2022/04/07 04:32:19;;;;;;;1.97;1.40;;;9.00;99.90;;;;;;5014738;28;20239;-81
2022/04/07 04:34:47;;;;;;;1.50;1.30;;;8.90;99.90;;;;;;5015009;28;20212;-81
2022/04/07 04:37:14;;;;;;;1.60;1.20;;;8.90;99.90;;;;;;5014576;28;20204;-81
2022/04/07 04:39:41;;;;;;;1.73;1.40;;;9.00;99.90;;;;;;5016349;28;20240;-81
2022/04/07 04:42:08;;;;;;;3.30;1.40;;;9.00;99.90;;;;;;5017194;28;20274;-80
2022/04/07 04:44:35;;;;;;;2.43;1.10;;;9.10;99.90;;;;;;5015327;28;20268;-81
2022/04/07 04:47:02;;;;;;;1.43;1.03;;;9.10;99.90;;;;;;5018623;28;20292;-80
2022/04/07 04:49:29;;;;;;;1.10;1.00;;;9.20;99.90;;;;;;5015465;28;20661;-82
2022/04/07 04:51:57;;;;;;;1.00;0.90;;;9.20;99.90;;;;;;5017230;28;20235;-80
2022/04/07 04:54:24;;;;;;;2.13;1.10;;;9.10;99.90;;;;;;5018479;28;20210;-81
2022/04/07 04:56:51;;;;;;;1.13;0.83;;;9.10;99.90;;;;;;5018106;28;20208;-81
2022/04/07 04:59:18;;;;;;;1.77;1.17;;;9.10;99.90;;;;;;5015340;28;20224;-80
2022/04/07 05:01:45;;;;;;;1.27;1.00;;;9.10;99.90;;;;;;5016279;28;20263;-83
2022/04/07 05:04:11;;;;;;;1.30;1.00;;;9.10;99.90;;;;;;5017380;28;20315;-83
2022/04/07 05:06:38;;;;;;;3.27;1.20;;;9.10;99.90;;;;;;5017746;28;20720;-81
2022/04/07 05:09:07;;;;;;;2.43;1.20;;;9.10;99.90;;;;;;5019523;28;20228;-80
2022/04/07 05:11:34;;;;;;;3.57;1.20;;;9.10;99.90;;;;;;5013020;28;20661;-81
2022/04/07 05:14:01;;;;;;;1.80;1.20;;;9.10;99.90;;;;;;5019210;28;20204;-80
2022/04/07 05:16:28;;;;;;;2.57;1.27;;;9.10;99.90;;;;;;5016657;28;20275;-81
2022/04/07 05:18:55;;;;;;;2.53;1.40;;;9.10;99.90;;;;;;5016397;28;20235;-79
2022/04/07 05:21:22;;;;;;;1.70;1.00;;;9.20;99.90;;;;;;5013670;28;20220;-80
2022/04/07 05:23:50;;;;;;;2.63;1.40;;;9.20;99.90;;;;;;5016255;28;20236;-81
2022/04/07 05:26:19;;;;;;;1.80;1.30;;;9.20;99.90;;;;;;5011571;28;20284;-81
2022/04/07 05:28:46;;;;;;;4.10;1.60;;;9.20;99.90;;;;;;5017341;28;20239;-80
2022/04/07 05:31:13;;;;;;;2.13;1.70;;;9.30;99.90;;;;;;5026730;23;20347;-78
2022/04/07 05:33:40;;;;;;;4.53;1.63;;;9.30;99.90;;;;;;5014787;28;20236;-80
2022/04/07 05:36:07;;;;;;;4.23;1.67;;;9.40;99.90;;;;;;5013003;28;20204;-79
2022/04/07 05:38:34;;;;;;;8.10;2.13;;;9.40;99.90;;;;;;5017958;28;20208;-79
2022/04/07 05:41:01;;;;;;;7.83;2.20;;;9.40;99.90;;;;;;5011102;28;20229;-78
2022/04/07 05:43:29;;;;;;;5.83;2.03;;;9.40;99.90;;;;;;5007802;28;20232;-79
2022/04/07 05:45:56;;;;;;;5.57;2.73;;;9.50;99.90;;;;;;5009269;28;20704;-79
2022/04/07 05:48:23;;;;;;;8.17;2.60;;;9.50;99.90;;;;;;5012840;28;20215;-79
2022/04/07 05:50:50;;;;;;;5.17;2.00;;;9.50;99.90;;;;;;5013371;28;20295;-80
2022/04/07 05:53:17;;;;;;;2.03;1.20;;;9.50;99.90;;;;;;5011112;28;20300;-80
2022/04/07 05:55:44;;;;;;;2.60;1.40;;;9.70;99.90;;;;;;5009655;28;20268;-79
2022/04/07 05:58:11;;;;;;;2.93;1.60;;;9.70;99.90;;;;;;5009902;28;20242;-80
2022/04/07 06:00:39;;;;;;;3.73;1.40;;;9.70;99.90;;;;;;5014366;28;20290;-79
2022/04/07 06:03:06;;;;;;;2.43;1.47;;;9.70;99.90;;;;;;5014397;28;20219;-79
2022/04/07 06:05:35;;;;;;;3.20;1.47;;;9.70;99.90;;;;;;5016103;28;20237;-80
2022/04/07 06:08:03;;;;;;;2.07;1.30;;;9.60;99.90;;;;;;5008417;28;20212;-79
2022/04/07 06:10:30;;;;;;;2.27;1.20;;;9.60;99.90;;;;;;5009298;28;20252;-79
2022/04/07 06:12:57;;;;;;;3.97;1.10;;;9.60;99.90;;;;;;5007174;28;20941;-80
2022/04/07 06:15:24;;;;;;;2.10;1.10;;;9.60;99.90;;;;;;5006143;28;20275;-78
2022/04/07 06:17:54;;;;;;;2.10;1.10;;;9.60;99.90;;;;;;5022040;28;20197;-79
2022/04/07 06:20:22;;;;;;;2.60;1.03;;;9.70;99.90;;;;;;5018229;28;20506;-79
2022/04/07 06:22:49;;;;;;;1.57;1.07;;;9.70;99.90;;;;;;5007044;28;20608;-79
2022/04/07 06:25:17;;;;;;;3.73;1.20;;;9.70;99.90;;;;;;5000339;28;20200;-77
2022/04/07 06:27:45;;;;;;;4.70;1.10;;;9.70;99.90;;;;;;4997653;28;20259;-77
2022/04/07 06:30:14;;;;;;;3.17;0.90;;;9.60;99.90;;;;;;4998649;28;20777;-77
2022/04/07 06:32:42;;;;;;;2.83;1.50;;;9.70;99.90;;;;;;4997809;28;20674;-76
2022/04/07 06:35:12;;;;;;;9.23;4.70;;;9.60;99.90;;;;;;4996813;28;20296;-77
2022/04/07 06:37:49;;;;;;;5.90;3.97;;;9.60;99.90;;;;;;4998434;28;20259;-77
2022/04/07 06:40:19;;;;;;;18.53;10.63;;;9.50;99.90;;;;;;5003471;28;20247;-78
2022/04/07 06:42:46;;;;;;;2.53;1.60;;;9.60;99.90;;;;;;5004087;28;20288;-77
2022/04/07 06:45:13;;;;;;;6.73;1.60;;;9.50;99.90;;;;;;4995749;28;20299;-77
2022/04/07 06:47:40;;;;;;;11.40;1.20;;;9.50;99.90;;;;;;5001029;28;20274;-78
2022/04/07 06:50:11;;;;;;;18.10;11.43;;;9.40;99.90;;;;;;5001949;28;20224;-77
2022/04/07 06:52:38;;;;;;;4.57;2.33;;;9.40;99.90;;;;;;4999200;28;20725;-78
2022/04/07 06:55:06;;;;;;;5.07;3.00;;;9.40;99.90;;;;;;5001448;28;20283;-78
2022/04/07 06:57:48;;;;;;;2.07;1.00;;;9.40;99.90;;;;;;5002344;28;20629;-79
2022/04/07 07:00:17;;;;;;;2.10;1.20;;;9.40;99.90;;;;;;5000563;28;20785;-78
2022/04/07 07:02:45;;;;;;;5.63;2.27;;;9.40;99.90;;;;;;5008395;28;20665;-77
2022/04/07 07:05:14;;;;;;;4.07;1.10;;;9.30;99.90;;;;;;5003129;28;20213;-77
2022/04/07 07:07:41;;;;;;;3.33;2.17;;;9.30;99.90;;;;;;5001551;28;20730;-78
2022/04/07 07:10:08;;;;;;;5.80;3.13;;;9.30;99.90;;;;;;5001548;28;20216;-78
2022/04/07 07:12:35;;;;;;;3.07;1.50;;;9.30;99.90;;;;;;5001290;28;20243;-79
2022/04/07 07:15:03;;;;;;;1.50;0.90;;;9.30;99.90;;;;;;4998257;28;20296;-79
2022/04/07 07:17:34;;;;;;;3.23;1.23;;;9.30;99.90;;;;;;5000225;28;20229;-79
2022/04/07 07:20:03;;;;;;;6.07;1.80;;;9.30;99.90;;;;;;4998636;28;20232;-77
2022/04/07 07:22:32;;;;;;;5.33;3.97;;;9.40;99.90;;;;;;5002012;28;20677;-77
2022/04/07 07:24:59;;;;;;;1.43;1.10;;;9.40;99.90;;;;;;5002250;28;20210;-77
2022/04/07 07:27:26;;;;;;;5.43;3.63;;;9.50;99.90;;;;;;4997341;28;20221;-76
2022/04/07 07:29:53;;;;;;;25.13;14.03;;;9.40;99.90;;;;;;5004117;28;20267;-77
2022/04/07 07:32:20;;;;;;;7.43;2.37;;;9.50;99.90;;;;;;5002405;28;20670;-77
2022/04/07 07:34:47;;;;;;;1.23;0.90;;;9.50;99.90;;;;;;5005809;28;20295;-76
2022/04/07 07:37:18;;;;;;;1.07;0.40;;;9.50;99.90;;;;;;5002947;28;20205;-78
2022/04/07 07:39:46;;;;;;;1.47;0.20;;;9.60;99.90;;;;;;5001341;28;20228;-77
2022/04/07 07:42:13;;;;;;;1.10;0.40;;;9.70;99.90;;;;;;4998888;28;20208;-75
2022/04/07 07:44:40;;;;;;;1.37;0.50;;;9.70;99.90;;;;;;4994304;28;20212;-77
2022/04/07 07:47:07;;;;;;;1.33;0.37;;;9.80;99.90;;;;;;4996458;28;20438;-76
2022/04/07 07:49:35;;;;;;;1.17;0.50;;;9.80;99.90;;;;;;4998581;28;20950;-77
2022/04/07 07:52:02;;;;;;;0.43;0.40;;;9.90;99.90;;;;;;5001034;28;20697;-78
2022/04/07 07:54:29;;;;;;;1.47;0.40;;;9.90;99.90;;;;;;4999690;28;20258;-76
2022/04/07 07:56:57;;;;;;;1.90;0.80;;;10.00;99.90;;;;;;4997153;28;20271;-78
2022/04/07 07:59:24;;;;;;;2.93;2.00;;;10.10;99.90;;;;;;5001944;28;20314;-77
2022/04/07 08:01:51;;;;;;;3.20;1.70;;;10.10;99.90;;;;;;5001262;28;20213;-78
2022/04/07 08:04:18;;;;;;;3.43;2.73;;;10.20;99.90;;;;;;5000262;28;20258;-77
2022/04/07 08:06:45;;;;;;;0.63;0.60;;;10.20;99.90;;;;;;4990084;28;20224;-78
2022/04/07 08:09:14;;;;;;;3.73;0.60;;;10.20;99.90;;;;;;4995634;28;20278;-79
2022/04/07 08:11:41;;;;;;;1.13;0.60;;;10.20;99.90;;;;;;4998676;28;20204;-77
2022/04/07 08:14:10;;;;;;;2.57;2.27;;;10.20;99.90;;;;;;4996692;28;20201;-78
2022/04/07 08:16:38;;;;;;;2.20;1.10;;;10.10;99.90;;;;;;4995896;28;20290;-78
2022/04/07 08:19:05;;;;;;;1.70;1.37;;;10.00;99.90;;;;;;5001545;28;20209;-78
2022/04/07 08:21:32;;;;;;;4.10;2.57;;;10.10;99.90;;;;;;5000761;28;20240;-77
2022/04/07 08:23:59;;;;;;;1.50;0.83;;;10.20;99.90;;;;;;4996210;28;20733;-78
2022/04/07 08:26:26;;;;;;;0.50;0.33;;;10.20;99.90;;;;;;4995966;28;20294;-77
2022/04/07 08:28:53;;;;;;;1.13;0.30;;;10.20;99.90;;;;;;4999121;28;20283;-78
2022/04/07 08:31:21;;;;;;;0.50;0.40;;;10.30;99.90;;;;;;4996838;28;20339;-79
2022/04/07 08:33:48;;;;;;;0.80;0.60;;;10.50;99.90;;;;;;4996880;28;20212;-78
2022/04/07 08:36:15;;;;;;;2.93;0.73;;;10.70;99.90;;;;;;5010718;28;20212;-77
2022/04/07 08:38:48;;;;;;;0.53;0.40;;;10.90;99.90;;;;;;5023517;28;20687;-77
2022/04/07 08:41:17;;;;;;;0.63;0.50;;;10.90;99.90;;;;;;5019543;28;20236;-79
2022/04/07 08:43:45;;;;;;;2.70;0.30;;;10.90;99.90;;;;;;5014398;28;20205;-78
2022/04/07 08:46:13;;;;;;;0.83;0.50;;;10.90;99.90;;;;;;4996905;28;20232;-77
2022/04/07 08:48:42;;;;;;;0.37;0.30;;;10.80;99.90;;;;;;4996524;28;20197;-77
2022/04/07 08:51:10;;;;;;;0.93;0.47;;;10.90;99.90;;;;;;4996614;28;20694;-79
2022/04/07 08:53:37;;;;;;;0.90;0.63;;;11.00;99.90;;;;;;4997239;28;20224;-79
2022/04/07 08:56:06;;;;;;;0.50;0.47;;;11.40;99.90;;;;;;5000271;28;20278;-79
2022/04/07 08:58:34;;;;;;;0.80;0.57;;;11.60;99.90;;;;;;4997335;28;20558;-77
2022/04/07 09:01:01;;;;;;;0.50;0.47;;;11.70;99.90;;;;;;4994935;28;20647;-79
2022/04/07 09:03:28;;;;;;;0.37;0.37;;;12.00;99.90;;;;;;5000641;28;20278;-78
2022/04/07 09:05:58;;;;;;;1.00;0.50;;;11.80;99.90;;;;;;5002412;28;20247;-79
2022/04/07 09:08:32;;;;;;;1.20;0.50;;;11.60;99.90;;;;;;5002012;28;20231;-77
2022/04/07 09:11:00;;;;;;;1.07;0.60;;;11.20;99.90;;;;;;5000664;28;20224;-79
2022/04/07 09:13:31;;;;;;;0.40;0.40;;;11.00;99.90;;;;;;4998091;28;20266;-76
2022/04/07 09:15:59;;;;;;;1.20;0.73;;;11.00;99.90;;;;;;4999937;28;20692;-78
2022/04/07 09:18:27;;;;;;;0.70;0.60;;;11.00;99.90;;;;;;5003239;28;20212;-78
2022/04/07 09:21:12;;;;;;;2.00;0.50;;;11.00;99.90;;;;;;5016365;28;20243;-77
2022/04/07 09:23:41;;;;;;;1.27;0.70;;;11.00;99.90;;;;;;5001728;28;20204;-77
2022/04/07 09:26:13;;;;;;;4.13;0.70;;;11.00;99.90;;;;;;4999211;28;20204;-77
2022/04/07 09:28:40;;;;;;;1.60;0.67;;;10.90;99.90;;;;;;5011311;28;20233;-77
2022/04/07 09:31:15;;;;;;;0.40;0.30;;;11.00;99.90;;;;;;5017011;28;20255;-77
2022/04/07 09:33:43;;;;;;;2.03;0.80;;;11.00;99.90;;;;;;5016775;28;20273;-80
2022/04/07 09:36:19;;;;;;;0.57;0.43;;;11.20;99.90;;;;;;5018172;28;20208;-80
2022/04/07 09:38:50;;;;;;;2.27;0.30;;;11.40;99.90;;;;;;5015305;28;20212;-79
2022/04/07 09:41:19;;;;;;;1.30;0.30;;;11.60;99.90;;;;;;5009946;28;20235;-78
2022/04/07 09:43:47;;;;;;;0.50;0.40;;;11.80;99.90;;;;;;5005382;28;20280;-76
2022/04/07 09:46:15;;;;;;;0.40;0.30;;;11.90;99.90;;;;;;5005106;28;20219;-78
2022/04/07 09:49:01;;;;;;;0.77;0.30;;;12.30;99.90;;;;;;5000595;28;20258;-78
2022/04/07 09:51:29;;;;;;;0.30;0.20;;;12.70;99.90;;;;;;5005613;28;20201;-77
2022/04/07 09:53:58;;;;;;;0.33;0.23;;;12.90;99.90;;;;;;4999645;28;20212;-78
2022/04/07 09:56:29;;;;;;;0.30;0.20;;;13.10;99.90;;;;;;5002176;28;20295;-78
2022/04/07 09:58:57;;;;;;;0.80;0.20;;;13.10;99.90;;;;;;5002549;28;20259;-78
2022/04/07 10:01:24;;;;;;;0.27;0.17;;;13.10;99.90;;;;;;5005972;28;20493;-79
2022/04/07 10:03:52;;;;;;;0.63;0.40;;;13.00;99.90;;;;;;5001845;28;20573;-78
2022/04/07 10:06:19;;;;;;;0.23;0.10;;;12.90;99.90;;;;;;5007221;28;20223;-77
2022/04/07 10:08:50;;;;;;;0.20;0.20;;;12.90;99.90;;;;;;5006186;28;20762;-77
2022/04/07 10:11:20;;;;;;;0.50;0.20;;;13.00;99.90;;;;;;5002104;28;20594;-77
2022/04/07 10:13:48;;;;;;;0.20;0.20;;;13.10;99.90;;;;;;5003284;28;20295;-77
2022/04/07 10:16:17;;;;;;;0.30;0.20;;;12.90;99.90;;;;;;4995455;28;20674;-77
2022/04/07 10:18:50;;;;;;;0.20;0.10;;;13.00;99.90;;;;;;5001956;28;20284;-78
2022/04/07 10:21:35;;;;;;;1.30;0.23;;;13.10;99.90;;;;;;5012763;28;20240;-77
2022/04/07 10:24:15;;;;;;;0.10;0.10;;;13.30;99.90;;;;;;5004231;28;20208;-80
2022/04/07 10:26:46;;;;;;;1.10;0.20;;;13.40;99.90;;;;;;5011588;28;20296;-79
2022/04/07 10:29:23;;;;;;;0.10;0.10;;;13.60;99.90;;;;;;5008345;28;20295;-79
2022/04/07 10:32:19;;;;;;;0.20;0.10;;;13.60;99.90;;;;;;5004892;28;20801;-80
2022/04/07 10:34:59;;;;;;;0.83;0.10;;;13.20;99.90;;;;;;5003231;28;20248;-79
2022/04/07 10:37:31;;;;;;;0.70;0.20;;;13.00;99.90;;;;;;5004467;28;20214;-77
2022/04/07 10:40:13;;;;;;;0.40;0.30;;;12.90;99.90;;;;;;5003236;28;20280;-80
2022/04/07 10:43:11;;;;;;;0.30;0.20;;;12.70;99.90;;;;;;4996122;28;20287;-80
2022/04/07 10:45:39;;;;;;;2.53;0.40;;;12.40;99.90;;;;;;4995541;28;20590;-80
2022/04/07 10:48:29;;;;;;;1.00;0.33;;;12.20;99.90;;;;;;4999304;28;20582;-78
2022/04/07 10:50:59;;;;;;;0.40;0.17;;;12.00;99.90;;;;;;4996890;28;20235;-77
2022/04/07 10:53:28;;;;;;;1.10;0.50;;;11.70;99.90;;;;;;5002455;28;20292;-78
2022/04/07 10:56:01;;;;;;;10.30;1.70;;;11.60;99.90;;;;;;4997884;28;20205;-79
2022/04/07 11:02:01;;;;;;;0.20;0.20;;;11.60;99.90;;;;;;5014612;28;20232;-78
2022/04/07 11:05:03;;;;;;;0.80;0.40;;;11.70;99.90;;;;;;5015000;28;20197;-79
2022/04/07 11:07:37;;;;;;;0.50;0.30;;;11.70;99.90;;;;;;5008306;28;20217;-79
2022/04/07 11:10:13;;;;;;;1.97;0.60;;;11.70;99.90;;;;;;5010201;28;20238;-80
2022/04/07 11:12:43;;;;;;;0.47;0.40;;;11.70;99.90;;;;;;5012449;28;20208;-78
2022/04/07 11:15:34;;;;;;;1.30;0.90;;;11.60;99.90;;;;;;5008097;28;20255;-80
2022/04/07 11:18:26;;;;;;;0.93;0.47;;;11.50;99.90;;;;;;4996629;28;20321;-79
2022/04/07 11:21:07;;;;;;;4.20;0.57;;;11.50;99.90;;;;;;5007160;28;20513;-78
2022/04/07 11:23:51;;;;;;;0.60;0.40;;;11.50;99.90;;;;;;5007663;28;20212;-77
2022/04/07 11:26:22;;;;;;;4.53;0.87;;;11.70;99.90;;;;;;5002241;28;20216;-78
2022/04/07 11:29:05;;;;;;;0.47;0.33;;;11.80;99.90;;;;;;4996390;28;20235;-79
2022/04/07 11:31:44;;;;;;;1.33;0.60;;;11.90;99.90;;;;;;5005063;28;20216;-79
2022/04/07 11:34:43;;;;;;;1.67;0.60;;;11.90;99.90;;;;;;5009853;28;20292;-79
2022/04/07 11:37:12;;;;;;;0.83;0.60;;;11.80;99.90;;;;;;4998959;28;20205;-80
2022/04/07 11:39:41;;;;;;;0.97;0.60;;;11.80;99.90;;;;;;5005118;28;20220;-80
2022/04/07 11:42:08;;;;;;;1.93;0.60;;;11.90;99.90;;;;;;5007661;28;20212;-80
2022/04/07 11:44:35;;;;;;;1.33;0.50;;;11.90;99.90;;;;;;5006924;28;20208;-80
2022/04/07 11:47:02;;;;;;;1.70;0.80;;;11.90;99.90;;;;;;5003880;28;20235;-79
2022/04/07 11:49:29;;;;;;;0.70;0.50;;;11.90;99.90;;;;;;5000212;28;20251;-79
2022/04/07 11:51:58;;;;;;;0.50;0.40;;;11.90;99.90;;;;;;5000167;28;20218;-79
2022/04/07 11:54:25;;;;;;;2.80;0.53;;;11.80;99.90;;;;;;5002549;28;20216;-80
2022/04/07 11:56:52;;;;;;;1.00;0.43;;;11.70;99.90;;;;;;5002890;28;20200;-79
2022/04/07 11:59:21;;;;;;;1.80;0.30;;;10.70;99.90;;;;;;4987240;28;20347;-79
2022/04/07 12:01:50;;;;;;;0.23;0.20;;;9.80;99.90;;;;;;5002717;28;21841;-79
2022/04/07 12:04:17;;;;;;;0.10;0.10;;;9.30;99.90;;;;;;5002510;28;20583;-77
2022/04/07 12:06:46;;;;;;;3.40;0.30;;;9.20;99.90;;;;;;5000589;28;20852;-78
2022/04/07 12:09:15;;;;;;;1.67;0.40;;;9.20;99.90;;;;;;5006062;28;20280;-78
2022/04/07 12:11:43;;;;;;;0.50;0.30;;;9.40;99.90;;;;;;5006334;28;20205;-78
2022/04/07 12:14:14;;;;;;;0.20;0.20;;;9.70;99.90;;;;;;5002970;28;20267;-78
2022/04/07 12:16:46;;;;;;;2.43;0.50;;;9.80;99.90;;;;;;5007853;28;20210;-78
2022/04/07 12:19:13;;;;;;;0.73;0.40;;;9.90;99.90;;;;;;5004456;28;20227;-78
2022/04/07 12:21:55;;;;;;;0.83;0.40;;;9.90;99.90;;;;;;5002128;28;20239;-77
2022/04/07 12:24:25;;;;;;;1.33;0.40;;;10.10;99.90;;;;;;5000238;28;20205;-77
2022/04/07 12:26:54;;;;;;;1.40;0.40;;;10.30;99.90;;;;;;4998729;28;20205;-77
2022/04/07 12:29:23;;;;;;;1.23;0.40;;;10.50;99.90;;;;;;5004215;28;20322;-77
2022/04/07 12:31:59;;;;;;;0.67;0.40;;;10.70;99.90;;;;;;5002264;28;20304;-77
2022/04/07 12:34:26;;;;;;;2.87;0.40;;;10.80;99.90;;;;;;4996523;28;20216;-77
2022/04/07 12:36:55;;;;;;;1.03;0.40;;;10.80;99.90;;;;;;5007544;23;20735;-78
2022/04/07 12:39:23;;;;;;;0.47;0.40;;;10.80;99.90;;;;;;4995728;28;20227;-78
2022/04/07 12:41:52;;;;;;;2.20;0.50;;;10.90;99.90;;;;;;4998702;28;20204;-78
2022/04/07 12:44:21;;;;;;;0.63;0.30;;;11.10;99.90;;;;;;4990369;28;20405;-78
2022/04/07 12:46:52;;;;;;;0.97;0.60;;;11.20;99.90;;;;;;4983572;28;20209;-77
2022/04/07 12:49:26;;;;;;;2.10;0.40;;;11.30;99.90;;;;;;5003245;28;20236;-77
2022/04/07 12:52:06;;;;;;;1.50;0.40;;;11.40;99.90;;;;;;4999158;28;20235;-78
2022/04/07 12:54:33;;;;;;;0.97;0.30;;;11.50;99.90;;;;;;4998420;28;20292;-78
2022/04/07 12:57:15;;;;;;;0.67;0.30;;;11.70;99.90;;;;;;5000070;28;20706;-77
2022/04/07 12:59:53;;;;;;;1.30;0.30;;;11.70;99.90;;;;;;5002801;28;20239;-76
2022/04/07 13:02:20;;;;;;;2.13;0.20;;;11.70;99.90;;;;;;4997751;28;20203;-77
2022/04/07 13:04:48;;;;;;;0.33;0.30;;;11.70;99.90;;;;;;5006476;28;20254;-77
2022/04/07 13:07:15;;;;;;;0.23;0.20;;;11.80;99.90;;;;;;5004760;28;20741;-77
2022/04/07 13:09:43;;;;;;;0.87;0.30;;;11.80;99.90;;;;;;5008599;28;20268;-76
2022/04/07 13:12:10;;;;;;;0.90;0.20;;;11.90;99.90;;;;;;5002718;28;20578;-76
2022/04/07 13:14:38;;;;;;;0.70;0.20;;;11.90;99.90;;;;;;5002831;28;20201;-77
2022/04/07 13:17:05;;;;;;;0.40;0.30;;;12.00;99.90;;;;;;5001789;28;20235;-77
2022/04/07 13:19:33;;;;;;;0.83;0.40;;;12.10;99.90;;;;;;5003645;28;20290;-76
2022/04/07 13:22:01;;;;;;;0.20;0.20;;;12.10;99.90;;;;;;5000244;28;20628;-77
2022/04/07 13:24:28;;;;;;;0.97;0.30;;;12.10;99.90;;;;;;5002092;28;20215;-77
2022/04/07 13:26:55;;;;;;;0.77;0.30;;;12.20;99.90;;;;;;5003217;28;20729;-76
2022/04/07 13:29:23;;;;;;;1.20;0.40;;;12.40;99.90;;;;;;5001036;28;20232;-77
2022/04/07 13:31:52;;;;;;;0.47;0.20;;;12.40;99.90;;;;;;5004412;28;20205;-76
2022/04/07 13:34:19;;;;;;;0.63;0.30;;;12.60;99.90;;;;;;5007101;28;20211;-77